createdAt,value
2022-11-17T00:02:29.326Z,100.00
2022-11-17T00:05:17.936Z,100.00
2022-11-17T00:10:57.453Z,100.00
2022-11-17T00:14:05.660Z,100.00
2022-11-17T00:16:53.772Z,100.00
2022-11-17T00:22:31.803Z,100.00
2022-11-17T00:25:19.804Z,100.00
2022-11-17T00:28:10.049Z,100.00
2022-11-17T00:34:05.741Z,100.00
2022-11-17T00:39:35.750Z,100.00
2022-11-17T00:45:10.170Z,100.00
2022-11-17T00:53:33.983Z,100.00
2022-11-17T00:59:11.059Z,97.27
2022-11-17T01:04:49.343Z,99.36
2022-11-17T01:10:25.965Z,99.55
2022-11-17T01:16:17.876Z,100.00
2022-11-17T01:21:54.304Z,100.00
2022-11-17T01:27:25.469Z,98.49
2022-11-17T01:32:55.856Z,97.84
2022-11-17T01:35:44.425Z,96.13
2022-11-17T01:41:18.585Z,95.23
2022-11-17T01:44:44.368Z,94.86
2022-11-17T01:50:43.276Z,95.56
2022-11-17T01:56:26.982Z,97.42
2022-11-17T02:02:04.851Z,98.55
2022-11-17T02:07:40.662Z,99.26
2022-11-17T02:10:31.336Z,99.15
2022-11-17T02:16:12.130Z,97.24
2022-11-17T02:19:03.444Z,97.67
2022-11-17T02:25:02.460Z,97.63
2022-11-17T02:30:43.452Z,98.57
2022-11-17T02:36:20.319Z,99.32
2022-11-17T02:41:55.684Z,99.72
2022-11-17T02:44:46.456Z,100.00
2022-11-17T02:50:28.274Z,99.84
2022-11-17T02:53:17.097Z,100.00
2022-11-17T02:58:53.961Z,99.15
2022-11-17T03:04:50.133Z,100.00
2022-11-17T03:10:41.070Z,100.00
2022-11-17T03:16:26.494Z,100.00
2022-11-17T03:22:00.779Z,100.00
2022-11-17T03:27:36.643Z,100.00
2022-11-17T03:33:16.754Z,100.00
2022-11-17T03:36:07.446Z,100.00
2022-11-17T03:41:39.047Z,100.00
2022-11-17T03:47:18.465Z,100.00
2022-11-17T03:52:57.405Z,100.00
2022-11-17T03:58:34.654Z,100.00
2022-11-17T04:01:24.020Z,100.00
2022-11-17T04:07:17.671Z,100.00
2022-11-17T04:15:59.024Z,100.00
2022-11-17T04:21:34.801Z,99.79
2022-11-17T04:27:23.683Z,100.00
2022-11-17T04:30:13.665Z,100.00
2022-11-17T04:33:02.817Z,100.00
2022-11-17T04:38:42.162Z,100.00
2022-11-17T04:41:49.279Z,100.00
2022-11-17T04:44:37.928Z,100.00
2022-11-17T04:53:00.661Z,100.00
2022-11-17T04:58:40.169Z,99.19
2022-11-17T05:04:18.052Z,98.34
2022-11-17T05:07:07.085Z,97.52
2022-11-17T05:13:03.670Z,97.35
2022-11-17T05:16:09.456Z,96.71
2022-11-17T05:21:50.867Z,97.89
2022-11-17T05:27:26.128Z,96.63
2022-11-17T05:35:54.870Z,96.42
2022-11-17T05:41:30.210Z,95.79
2022-11-17T05:47:20.008Z,95.34
2022-11-17T05:52:53.981Z,94.06
2022-11-17T05:58:30.498Z,94.65
2022-11-17T06:04:02.351Z,94.78
2022-11-17T06:09:34.433Z,95.45
2022-11-17T06:12:24.163Z,96.28
2022-11-17T06:17:58.380Z,96.64
2022-11-17T06:20:53.825Z,97.11
2022-11-17T06:23:43.922Z,96.59
2022-11-17T06:29:49.726Z,97.77
2022-11-17T06:35:36.396Z,98.90
2022-11-17T06:41:12.417Z,99.00
2022-11-17T06:44:00.916Z,99.55
2022-11-17T06:49:31.234Z,99.48
2022-11-17T06:55:09.396Z,100.00
2022-11-17T07:00:48.875Z,99.32
2022-11-17T07:03:37.858Z,99.29
2022-11-17T07:09:12.956Z,100.00
2022-11-17T07:15:02.047Z,100.00
2022-11-17T07:17:50.391Z,100.00
2022-11-17T07:20:38.894Z,100.00
2022-11-17T07:26:07.803Z,100.00
2022-11-17T07:31:37.490Z,100.00
2022-11-17T07:34:26.177Z,100.00
2022-11-17T07:37:14.704Z,100.00
2022-11-17T07:42:44.287Z,100.00
2022-11-17T07:48:21.612Z,100.00
2022-11-17T07:53:57.218Z,95.33
2022-11-17T07:59:25.413Z,88.35
2022-11-17T08:04:56.185Z,78.46
2022-11-17T08:07:44.673Z,76.65
2022-11-17T08:10:34.432Z,74.56
2022-11-17T08:16:25.926Z,74.17
2022-11-17T08:19:24.620Z,70.70
2022-11-17T08:25:02.363Z,66.39
2022-11-17T08:30:36.046Z,63.13
2022-11-17T08:33:24.729Z,62.18
2022-11-17T08:39:00.550Z,61.63
2022-11-17T08:44:48.814Z,59.35
2022-11-17T08:50:29.211Z,59.53
2022-11-17T08:53:19.012Z,58.78
2022-11-17T08:58:54.569Z,59.05
2022-11-17T09:01:43.167Z,59.44
2022-11-17T09:07:15.088Z,61.51
2022-11-17T09:13:04.342Z,62.09
2022-11-17T09:15:53.233Z,62.29
2022-11-17T09:21:30.847Z,64.46
2022-11-17T09:29:41.166Z,63.80
2022-11-17T09:32:29.598Z,64.59
2022-11-17T09:38:06.390Z,66.51
2022-11-17T09:43:43.858Z,68.67
2022-11-17T09:46:36.980Z,68.35
2022-11-17T09:52:17.077Z,68.00
2022-11-17T09:57:51.566Z,68.00
2022-11-17T10:06:08.643Z,67.29
2022-11-17T10:11:48.716Z,66.37
2022-11-17T10:14:42.057Z,67.29
2022-11-17T10:20:19.363Z,67.73
2022-11-17T10:25:59.802Z,67.49
2022-11-17T10:31:27.803Z,66.83
2022-11-17T10:34:40.240Z,67.05
2022-11-17T10:40:24.970Z,64.66
2022-11-17T10:46:18.066Z,63.73
2022-11-17T10:49:10.895Z,62.77
2022-11-17T10:54:59.580Z,61.69
2022-11-17T10:57:50.273Z,61.34
2022-11-17T11:06:17.502Z,63.09
2022-11-17T11:11:53.898Z,62.84
2022-11-17T11:14:45.695Z,61.81
2022-11-17T11:20:24.569Z,61.29
2022-11-17T11:26:03.859Z,62.32
2022-11-17T11:28:59.977Z,63.29
2022-11-17T11:35:00.258Z,63.68
2022-11-17T11:40:39.519Z,64.21
2022-11-17T11:46:15.762Z,63.62
2022-11-17T11:54:40.443Z,63.15
2022-11-17T11:57:30.410Z,62.89
2022-11-17T12:00:25.016Z,62.78
2022-11-17T12:06:29.872Z,63.50
2022-11-17T12:09:39.700Z,63.25
2022-11-17T12:12:33.396Z,63.32
2022-11-17T12:18:36.978Z,63.54
2022-11-17T12:21:28.625Z,62.78
2022-11-17T12:27:43.897Z,63.31
2022-11-17T12:34:31.440Z,63.07
2022-11-17T12:40:46.641Z,63.35
2022-11-17T12:46:27.656Z,62.62
2022-11-17T12:52:14.802Z,62.78
2022-11-17T12:55:06.231Z,63.07
2022-11-17T12:57:59.308Z,63.15
2022-11-17T13:03:49.516Z,63.67
2022-11-17T13:09:27.817Z,61.79
2022-11-17T13:15:02.169Z,61.32
2022-11-17T13:20:40.659Z,59.82
2022-11-17T13:23:30.929Z,59.68
2022-11-17T13:29:09.120Z,59.15
2022-11-17T13:35:25.029Z,58.50
2022-11-17T13:41:04.887Z,58.09
2022-11-17T13:43:54.331Z,57.78
2022-11-17T13:46:43.850Z,57.97
2022-11-17T13:49:34.748Z,59.00
2022-11-17T13:52:38.038Z,59.62
2022-11-17T13:55:25.419Z,60.81
2022-11-17T13:58:33.692Z,61.65
2022-11-17T14:04:20.947Z,61.72
2022-11-17T14:10:31.008Z,62.49
2022-11-17T14:16:05.654Z,62.62
2022-11-17T14:22:03.122Z,63.48
2022-11-17T14:27:40.864Z,63.69
2022-11-17T14:30:30.191Z,64.19
2022-11-17T14:36:03.255Z,65.12
2022-11-17T14:41:41.835Z,64.78
2022-11-17T14:44:30.158Z,65.12
2022-11-17T14:47:19.200Z,65.44
2022-11-17T14:52:56.130Z,66.05
2022-11-17T14:55:46.366Z,66.34
2022-11-17T14:58:38.904Z,66.35
2022-11-17T15:01:30.267Z,66.51
2022-11-17T15:15:12.464Z,66.36
2022-11-17T15:18:05.775Z,66.55
2022-11-17T15:23:52.273Z,67.54
2022-11-17T15:29:30.820Z,67.39
2022-11-17T15:35:06.189Z,68.45
2022-11-17T15:38:01.735Z,67.72
2022-11-17T15:43:43.355Z,68.29
2022-11-17T15:46:36.084Z,68.83
2022-11-17T15:49:24.652Z,68.59
2022-11-17T15:52:13.934Z,68.72
2022-11-17T15:57:57.953Z,69.24
2022-11-17T16:03:31.402Z,70.19
2022-11-17T16:12:14.709Z,70.09
2022-11-17T16:15:13.610Z,70.67
2022-11-17T16:18:02.062Z,71.81
2022-11-17T16:20:53.166Z,72.94
2022-11-17T16:26:30.138Z,74.04
2022-11-17T16:32:06.518Z,74.45
2022-11-17T16:37:41.912Z,74.40
2022-11-17T16:43:35.278Z,74.85
2022-11-17T16:46:26.224Z,75.16
2022-11-17T16:49:18.060Z,75.99
2022-11-17T16:52:08.756Z,76.77
2022-11-17T17:03:21.867Z,76.85
2022-11-17T17:08:55.877Z,75.12
2022-11-17T17:11:44.269Z,75.08
2022-11-17T17:17:19.785Z,75.77
2022-11-17T17:22:48.820Z,74.67
2022-11-17T17:25:37.480Z,74.35
2022-11-17T17:31:18.084Z,75.28
2022-11-17T17:36:45.086Z,75.50
2022-11-17T17:39:35.705Z,75.57
2022-11-17T17:45:03.051Z,76.72
2022-11-17T17:50:40.087Z,76.33
2022-11-17T17:53:29.359Z,77.20
2022-11-17T17:59:08.645Z,78.34
2022-11-17T18:01:59.911Z,78.36
2022-11-17T18:07:35.506Z,76.53
2022-11-17T18:13:10.942Z,77.74
2022-11-17T18:15:59.207Z,78.81
2022-11-17T18:18:47.831Z,78.32
2022-11-17T18:21:38.724Z,78.50
2022-11-17T18:27:23.435Z,78.47
2022-11-17T18:33:03.265Z,80.31
2022-11-17T18:38:36.213Z,80.76
2022-11-17T18:41:24.532Z,81.35
2022-11-17T18:47:02.790Z,79.38
2022-11-17T18:55:19.738Z,81.68
2022-11-17T19:00:49.594Z,84.64
2022-11-17T19:06:27.271Z,88.10
2022-11-17T19:12:02.868Z,91.54
2022-11-17T19:17:39.516Z,93.88
2022-11-17T19:20:30.357Z,95.43
2022-11-17T19:23:19.483Z,95.61
2022-11-17T19:26:09.991Z,97.59
2022-11-17T19:34:27.746Z,100.00
2022-11-17T19:40:18.150Z,100.00
2022-11-17T19:43:40.267Z,100.00
2022-11-17T19:49:19.261Z,100.00
2022-11-17T19:54:50.942Z,100.00
2022-11-17T20:03:18.020Z,100.00
2022-11-17T20:08:52.484Z,100.00
2022-11-17T20:11:49.070Z,100.00
2022-11-17T20:17:34.195Z,100.00
2022-11-17T20:23:12.978Z,100.00
2022-11-17T20:34:24.944Z,100.00
2022-11-17T20:40:02.286Z,100.00
2022-11-17T20:45:30.701Z,100.00
2022-11-17T20:51:06.143Z,100.00
2022-11-17T20:53:56.806Z,100.00
2022-11-17T20:59:26.125Z,100.00
2022-11-17T21:05:03.366Z,100.00
2022-11-17T21:07:58.208Z,100.00
2022-11-17T21:13:35.987Z,100.00
2022-11-17T21:16:26.535Z,100.00
2022-11-17T21:19:15.532Z,100.00
2022-11-17T21:25:04.996Z,100.00
2022-11-17T21:27:53.544Z,100.00
2022-11-17T21:33:31.300Z,100.00
2022-11-17T21:36:20.407Z,100.00
2022-11-17T21:39:09.223Z,100.00
2022-11-17T21:48:12.619Z,100.00
2022-11-17T21:53:53.727Z,100.00
2022-11-17T21:56:43.520Z,100.00
2022-11-17T21:59:33.977Z,100.00
2022-11-17T22:02:22.878Z,100.00
2022-11-17T22:08:01.107Z,100.00
2022-11-17T22:13:40.738Z,100.00
2022-11-17T22:19:19.603Z,100.00
2022-11-17T22:28:20.183Z,100.00
2022-11-17T22:33:55.304Z,100.00
2022-11-17T22:36:44.501Z,100.00
2022-11-17T22:42:25.369Z,100.00
2022-11-17T22:47:55.317Z,100.00
2022-11-17T22:53:33.639Z,100.00
2022-11-17T22:59:05.181Z,100.00
2022-11-17T23:01:54.217Z,100.00
2022-11-17T23:04:43.378Z,100.00
2022-11-17T23:10:13.254Z,100.00
2022-11-17T23:15:49.399Z,100.00
2022-11-17T23:21:26.274Z,100.00
2022-11-17T23:26:56.329Z,100.00
2022-11-17T23:32:27.192Z,100.00
2022-11-17T23:35:15.989Z,100.00
2022-11-17T23:38:04.438Z,100.00
2022-11-17T23:43:40.491Z,100.00
2022-11-17T23:46:29.023Z,100.00
2022-11-17T23:52:01.973Z,100.00
2022-11-17T23:57:38.378Z,100.00
